sensor_id;sensor_type;location;lat;lon;timestamp;P1;durP1;ratioP1;P2;durP2;ratioP2
20344;SDS011;10330;48.816;9.278;2023-03-14T00:00:05;2.20;;;0.80;;
20344;SDS011;10330;48.816;9.278;2023-03-14T00:02:34;0.63;;;0.63;;
20344;SDS011;10330;48.816;9.278;2023-03-14T00:05:00;1.98;;;0.70;;
20344;SDS011;10330;48.816;9.278;2023-03-14T00:07:35;0.60;;;0.60;;
20344;SDS011;10330;48.816;9.278;2023-03-14T00:10:07;0.55;;;0.55;;
20344;SDS011;10330;48.816;9.278;2023-03-14T00:12:37;0.55;;;0.55;;
20344;SDS011;10330;48.816;9.278;2023-03-14T00:15:04;0.50;;;0.50;;
20344;SDS011;10330;48.816;9.278;2023-03-14T00:17:32;0.50;;;0.50;;
20344;SDS011;10330;48.816;9.278;2023-03-14T00:19:59;2.47;;;0.60;;
20344;SDS011;10330;48.816;9.278;2023-03-14T00:22:42;0.52;;;0.43;;
20344;SDS011;10330;48.816;9.278;2023-03-14T00:25:09;0.75;;;0.75;;
20344;SDS011;10330;48.816;9.278;2023-03-14T00:27:36;1.13;;;0.70;;
20344;SDS011;10330;48.816;9.278;2023-03-14T00:30:04;0.60;;;0.60;;
20344;SDS011;10330;48.816;9.278;2023-03-14T00:32:33;0.75;;;0.75;;
20344;SDS011;10330;48.816;9.278;2023-03-14T00:35:01;0.82;;;0.82;;
20344;SDS011;10330;48.816;9.278;2023-03-14T00:37:28;0.65;;;0.60;;
20344;SDS011;10330;48.816;9.278;2023-03-14T00:39:54;0.60;;;0.60;;
20344;SDS011;10330;48.816;9.278;2023-03-14T00:42:21;3.17;;;0.70;;
20344;SDS011;10330;48.816;9.278;2023-03-14T00:44:47;0.70;;;0.70;;
20344;SDS011;10330;48.816;9.278;2023-03-14T00:47:13;0.82;;;0.80;;
20344;SDS011;10330;48.816;9.278;2023-03-14T00:49:39;0.73;;;0.73;;
20344;SDS011;10330;48.816;9.278;2023-03-14T00:52:05;0.80;;;0.80;;
20344;SDS011;10330;48.816;9.278;2023-03-14T00:54:32;1.35;;;0.77;;
20344;SDS011;10330;48.816;9.278;2023-03-14T00:56:58;2.25;;;0.57;;
20344;SDS011;10330;48.816;9.278;2023-03-14T00:59:24;2.95;;;0.60;;
20344;SDS011;10330;48.816;9.278;2023-03-14T01:01:50;0.88;;;0.65;;
20344;SDS011;10330;48.816;9.278;2023-03-14T01:04:16;0.60;;;0.52;;
20344;SDS011;10330;48.816;9.278;2023-03-14T01:06:42;2.10;;;0.80;;
20344;SDS011;10330;48.816;9.278;2023-03-14T01:09:10;0.95;;;0.95;;
20344;SDS011;10330;48.816;9.278;2023-03-14T01:11:36;1.10;;;1.00;;
20344;SDS011;10330;48.816;9.278;2023-03-14T01:14:02;6.07;;;1.63;;
20344;SDS011;10330;48.816;9.278;2023-03-14T01:16:31;4.15;;;1.77;;
20344;SDS011;10330;48.816;9.278;2023-03-14T01:19:00;1.08;;;1.08;;
20344;SDS011;10330;48.816;9.278;2023-03-14T01:21:29;0.70;;;0.70;;
20344;SDS011;10330;48.816;9.278;2023-03-14T01:23:59;3.63;;;0.98;;
20344;SDS011;10330;48.816;9.278;2023-03-14T01:26:29;0.73;;;0.60;;
20344;SDS011;10330;48.816;9.278;2023-03-14T01:28:57;0.35;;;0.35;;
20344;SDS011;10330;48.816;9.278;2023-03-14T01:31:25;0.52;;;0.52;;
20344;SDS011;10330;48.816;9.278;2023-03-14T01:33:52;0.68;;;0.60;;
20344;SDS011;10330;48.816;9.278;2023-03-14T01:36:18;0.60;;;0.60;;
20344;SDS011;10330;48.816;9.278;2023-03-14T01:38:45;2.92;;;0.90;;
20344;SDS011;10330;48.816;9.278;2023-03-14T01:41:16;1.48;;;0.63;;
20344;SDS011;10330;48.816;9.278;2023-03-14T01:43:47;0.40;;;0.40;;
20344;SDS011;10330;48.816;9.278;2023-03-14T01:46:17;0.60;;;0.60;;
20344;SDS011;10330;48.816;9.278;2023-03-14T01:49:05;1.20;;;0.50;;
20344;SDS011;10330;48.816;9.278;2023-03-14T01:52:07;0.93;;;0.60;;
20344;SDS011;10330;48.816;9.278;2023-03-14T01:54:42;0.73;;;0.30;;
20344;SDS011;10330;48.816;9.278;2023-03-14T01:57:17;0.40;;;0.40;;
20344;SDS011;10330;48.816;9.278;2023-03-14T01:59:51;0.90;;;0.55;;
20344;SDS011;10330;48.816;9.278;2023-03-14T02:02:20;1.35;;;0.50;;
20344;SDS011;10330;48.816;9.278;2023-03-14T02:04:48;1.23;;;0.50;;
20344;SDS011;10330;48.816;9.278;2023-03-14T02:07:26;0.63;;;0.50;;
20344;SDS011;10330;48.816;9.278;2023-03-14T02:10:10;1.98;;;0.43;;
20344;SDS011;10330;48.816;9.278;2023-03-14T02:12:37;0.43;;;0.43;;
20344;SDS011;10330;48.816;9.278;2023-03-14T02:15:10;0.50;;;0.50;;
20344;SDS011;10330;48.816;9.278;2023-03-14T02:17:49;1.75;;;0.50;;
20344;SDS011;10330;48.816;9.278;2023-03-14T02:23:35;7.25;;;0.60;;
20344;SDS011;10330;48.816;9.278;2023-03-14T02:26:08;0.50;;;0.50;;
20344;SDS011;10330;48.816;9.278;2023-03-14T02:28:53;0.50;;;0.50;;
20344;SDS011;10330;48.816;9.278;2023-03-14T02:31:19;0.30;;;0.30;;
20344;SDS011;10330;48.816;9.278;2023-03-14T02:33:48;0.47;;;0.45;;
20344;SDS011;10330;48.816;9.278;2023-03-14T02:36:16;7.82;;;0.60;;
20344;SDS011;10330;48.816;9.278;2023-03-14T02:41:28;0.30;;;0.30;;
20344;SDS011;10330;48.816;9.278;2023-03-14T02:44:02;0.40;;;0.40;;
20344;SDS011;10330;48.816;9.278;2023-03-14T02:46:28;0.50;;;0.50;;
20344;SDS011;10330;48.816;9.278;2023-03-14T02:49:00;0.80;;;0.50;;
20344;SDS011;10330;48.816;9.278;2023-03-14T02:51:30;0.43;;;0.43;;
20344;SDS011;10330;48.816;9.278;2023-03-14T02:53:58;0.40;;;0.40;;
20344;SDS011;10330;48.816;9.278;2023-03-14T02:56:25;0.80;;;0.30;;
20344;SDS011;10330;48.816;9.278;2023-03-14T02:58:51;0.20;;;0.20;;
20344;SDS011;10330;48.816;9.278;2023-03-14T03:01:37;0.93;;;0.47;;
20344;SDS011;10330;48.816;9.278;2023-03-14T03:04:03;0.85;;;0.40;;
20344;SDS011;10330;48.816;9.278;2023-03-14T03:06:30;0.82;;;0.40;;
20344;SDS011;10330;48.816;9.278;2023-03-14T03:08:56;2.10;;;0.70;;
20344;SDS011;10330;48.816;9.278;2023-03-14T03:11:22;0.30;;;0.30;;
20344;SDS011;10330;48.816;9.278;2023-03-14T03:13:48;3.60;;;0.60;;
20344;SDS011;10330;48.816;9.278;2023-03-14T03:16:15;0.63;;;0.63;;
20344;SDS011;10330;48.816;9.278;2023-03-14T03:18:41;0.55;;;0.55;;
20344;SDS011;10330;48.816;9.278;2023-03-14T03:21:07;1.95;;;0.40;;
20344;SDS011;10330;48.816;9.278;2023-03-14T03:23:35;0.32;;;0.32;;
20344;SDS011;10330;48.816;9.278;2023-03-14T03:26:01;0.40;;;0.40;;
20344;SDS011;10330;48.816;9.278;2023-03-14T03:28:28;0.30;;;0.30;;
20344;SDS011;10330;48.816;9.278;2023-03-14T03:30:56;0.60;;;0.60;;
20344;SDS011;10330;48.816;9.278;2023-03-14T03:33:22;0.50;;;0.50;;
20344;SDS011;10330;48.816;9.278;2023-03-14T03:35:50;2.10;;;0.68;;
20344;SDS011;10330;48.816;9.278;2023-03-14T03:38:31;1.13;;;0.73;;
20344;SDS011;10330;48.816;9.278;2023-03-14T03:41:02;0.45;;;0.45;;
20344;SDS011;10330;48.816;9.278;2023-03-14T03:43:31;0.70;;;0.50;;
20344;SDS011;10330;48.816;9.278;2023-03-14T03:46:02;0.52;;;0.50;;
20344;SDS011;10330;48.816;9.278;2023-03-14T03:48:30;3.70;;;0.70;;
20344;SDS011;10330;48.816;9.278;2023-03-14T03:50:56;0.60;;;0.60;;
20344;SDS011;10330;48.816;9.278;2023-03-14T03:53:23;3.13;;;0.60;;
20344;SDS011;10330;48.816;9.278;2023-03-14T03:55:49;0.70;;;0.70;;
20344;SDS011;10330;48.816;9.278;2023-03-14T03:58:15;0.90;;;0.70;;
20344;SDS011;10330;48.816;9.278;2023-03-14T04:00:41;2.33;;;0.63;;
20344;SDS011;10330;48.816;9.278;2023-03-14T04:03:08;1.65;;;0.80;;
20344;SDS011;10330;48.816;9.278;2023-03-14T04:05:34;1.20;;;0.82;;
20344;SDS011;10330;48.816;9.278;2023-03-14T04:08:06;1.08;;;0.57;;
20344;SDS011;10330;48.816;9.278;2023-03-14T04:10:35;5.05;;;1.13;;
20344;SDS011;10330;48.816;9.278;2023-03-14T04:13:19;2.00;;;0.80;;
20344;SDS011;10330;48.816;9.278;2023-03-14T04:15:49;1.95;;;0.70;;
20344;SDS011;10330;48.816;9.278;2023-03-14T04:18:25;0.82;;;0.73;;
20344;SDS011;10330;48.816;9.278;2023-03-14T04:20:56;0.40;;;0.40;;
20344;SDS011;10330;48.816;9.278;2023-03-14T04:23:30;3.92;;;0.98;;
20344;SDS011;10330;48.816;9.278;2023-03-14T04:25:59;0.57;;;0.55;;
20344;SDS011;10330;48.816;9.278;2023-03-14T04:28:27;8.00;;;1.10;;
20344;SDS011;10330;48.816;9.278;2023-03-14T04:30:54;11.02;;;1.05;;
20344;SDS011;10330;48.816;9.278;2023-03-14T04:33:22;6.55;;;0.82;;
20344;SDS011;10330;48.816;9.278;2023-03-14T04:35:54;7.03;;;0.90;;
20344;SDS011;10330;48.816;9.278;2023-03-14T04:38:21;1.52;;;0.45;;
20344;SDS011;10330;48.816;9.278;2023-03-14T04:40:48;3.05;;;0.55;;
20344;SDS011;10330;48.816;9.278;2023-03-14T04:43:17;0.70;;;0.70;;
20344;SDS011;10330;48.816;9.278;2023-03-14T04:45:49;0.55;;;0.55;;
20344;SDS011;10330;48.816;9.278;2023-03-14T04:48:16;1.13;;;0.73;;
20344;SDS011;10330;48.816;9.278;2023-03-14T04:50:42;1.77;;;0.93;;
20344;SDS011;10330;48.816;9.278;2023-03-14T04:53:09;5.00;;;0.80;;
20344;SDS011;10330;48.816;9.278;2023-03-14T04:55:36;2.55;;;0.82;;
20344;SDS011;10330;48.816;9.278;2023-03-14T04:58:02;1.15;;;0.73;;
20344;SDS011;10330;48.816;9.278;2023-03-14T05:00:28;8.35;;;0.70;;
20344;SDS011;10330;48.816;9.278;2023-03-14T05:03:06;1.38;;;0.77;;
20344;SDS011;10330;48.816;9.278;2023-03-14T05:05:50;3.83;;;1.02;;
20344;SDS011;10330;48.816;9.278;2023-03-14T05:08:35;1.90;;;1.00;;
20344;SDS011;10330;48.816;9.278;2023-03-14T05:11:13;0.85;;;0.85;;
20344;SDS011;10330;48.816;9.278;2023-03-14T05:13:51;4.40;;;0.60;;
20344;SDS011;10330;48.816;9.278;2023-03-14T05:16:36;1.35;;;0.77;;
20344;SDS011;10330;48.816;9.278;2023-03-14T05:19:35;5.25;;;1.13;;
20344;SDS011;10330;48.816;9.278;2023-03-14T05:22:10;3.67;;;0.95;;
20344;SDS011;10330;48.816;9.278;2023-03-14T05:24:55;3.75;;;0.80;;
20344;SDS011;10330;48.816;9.278;2023-03-14T05:27:45;1.63;;;0.80;;
20344;SDS011;10330;48.816;9.278;2023-03-14T05:30:30;2.17;;;0.50;;
20344;SDS011;10330;48.816;9.278;2023-03-14T05:33:06;3.80;;;1.00;;
20344;SDS011;10330;48.816;9.278;2023-03-14T05:35:53;1.65;;;1.00;;
20344;SDS011;10330;48.816;9.278;2023-03-14T05:38:43;2.03;;;0.80;;
20344;SDS011;10330;48.816;9.278;2023-03-14T05:41:28;4.28;;;1.30;;
20344;SDS011;10330;48.816;9.278;2023-03-14T05:43:54;2.10;;;1.00;;
20344;SDS011;10330;48.816;9.278;2023-03-14T05:46:32;1.52;;;0.65;;
20344;SDS011;10330;48.816;9.278;2023-03-14T05:49:17;5.82;;;0.50;;
20344;SDS011;10330;48.816;9.278;2023-03-14T05:52:09;0.88;;;0.80;;
20344;SDS011;10330;48.816;9.278;2023-03-14T05:55:02;3.70;;;1.02;;
20344;SDS011;10330;48.816;9.278;2023-03-14T05:57:47;0.80;;;0.80;;
20344;SDS011;10330;48.816;9.278;2023-03-14T06:00:42;2.13;;;0.82;;
20344;SDS011;10330;48.816;9.278;2023-03-14T06:03:21;1.98;;;0.90;;
20344;SDS011;10330;48.816;9.278;2023-03-14T06:05:51;2.75;;;0.85;;
20344;SDS011;10330;48.816;9.278;2023-03-14T06:08:19;1.15;;;0.65;;
20344;SDS011;10330;48.816;9.278;2023-03-14T06:10:46;6.47;;;0.80;;
20344;SDS011;10330;48.816;9.278;2023-03-14T06:13:12;0.77;;;0.77;;
20344;SDS011;10330;48.816;9.278;2023-03-14T06:15:39;2.30;;;0.95;;
20344;SDS011;10330;48.816;9.278;2023-03-14T06:18:05;1.63;;;0.90;;
20344;SDS011;10330;48.816;9.278;2023-03-14T06:32:03;4.00;;;1.38;;
20344;SDS011;10330;48.816;9.278;2023-03-14T06:52:42;1.65;;;1.00;;
20344;SDS011;10330;48.816;9.278;2023-03-14T06:55:22;3.70;;;1.25;;
20344;SDS011;10330;48.816;9.278;2023-03-14T07:05:43;4.80;;;0.90;;
20344;SDS011;10330;48.816;9.278;2023-03-14T07:31:23;4.13;;;1.00;;
20344;SDS011;10330;48.816;9.278;2023-03-14T07:37:19;1.55;;;0.70;;
20344;SDS011;10330;48.816;9.278;2023-03-14T07:44:01;1.65;;;0.70;;
20344;SDS011;10330;48.816;9.278;2023-03-14T07:46:47;2.85;;;0.70;;
20344;SDS011;10330;48.816;9.278;2023-03-14T07:53:31;0.45;;;0.45;;
20344;SDS011;10330;48.816;9.278;2023-03-14T07:56:55;1.65;;;0.60;;
20344;SDS011;10330;48.816;9.278;2023-03-14T08:00:25;0.30;;;0.30;;
20344;SDS011;10330;48.816;9.278;2023-03-14T08:03:54;0.98;;;0.50;;
20344;SDS011;10330;48.816;9.278;2023-03-14T08:06:45;0.45;;;0.40;;
20344;SDS011;10330;48.816;9.278;2023-03-14T08:21:04;3.20;;;0.50;;
20344;SDS011;10330;48.816;9.278;2023-03-14T09:29:22;0.38;;;0.38;;
20344;SDS011;10330;48.816;9.278;2023-03-14T09:33:10;0.55;;;0.55;;
20344;SDS011;10330;48.816;9.278;2023-03-14T09:36:28;0.47;;;0.47;;
20344;SDS011;10330;48.816;9.278;2023-03-14T09:40:10;0.40;;;0.40;;
20344;SDS011;10330;48.816;9.278;2023-03-14T09:43:35;0.95;;;0.38;;
20344;SDS011;10330;48.816;9.278;2023-03-14T09:53:47;4.43;;;0.82;;
20344;SDS011;10330;48.816;9.278;2023-03-14T10:08:27;0.35;;;0.35;;
20344;SDS011;10330;48.816;9.278;2023-03-14T10:11:41;0.40;;;0.20;;
20344;SDS011;10330;48.816;9.278;2023-03-14T10:14:36;0.32;;;0.32;;
20344;SDS011;10330;48.816;9.278;2023-03-14T10:41:43;0.40;;;0.40;;
20344;SDS011;10330;48.816;9.278;2023-03-14T10:44:01;0.30;;;0.20;;
20344;SDS011;10330;48.816;9.278;2023-03-14T10:46:36;0.40;;;0.40;;
20344;SDS011;10330;48.816;9.278;2023-03-14T10:49:27;0.50;;;0.50;;
20344;SDS011;10330;48.816;9.278;2023-03-14T10:51:56;0.40;;;0.40;;
20344;SDS011;10330;48.816;9.278;2023-03-14T10:54:53;0.45;;;0.45;;
20344;SDS011;10330;48.816;9.278;2023-03-14T10:57:26;0.80;;;0.20;;
20344;SDS011;10330;48.816;9.278;2023-03-14T11:01:18;0.40;;;0.40;;
20344;SDS011;10330;48.816;9.278;2023-03-14T11:12:37;9.15;;;0.68;;
20344;SDS011;10330;48.816;9.278;2023-03-14T11:20:50;0.28;;;0.28;;
20344;SDS011;10330;48.816;9.278;2023-03-14T11:23:22;1.45;;;0.38;;
20344;SDS011;10330;48.816;9.278;2023-03-14T11:28:56;2.13;;;0.80;;
20344;SDS011;10330;48.816;9.278;2023-03-14T11:36:59;0.50;;;0.50;;
20344;SDS011;10330;48.816;9.278;2023-03-14T11:39:41;0.40;;;0.40;;
20344;SDS011;10330;48.816;9.278;2023-03-14T11:42:16;0.30;;;0.30;;
20344;SDS011;10330;48.816;9.278;2023-03-14T11:44:46;0.47;;;0.40;;
20344;SDS011;10330;48.816;9.278;2023-03-14T11:52:50;0.68;;;0.60;;
20344;SDS011;10330;48.816;9.278;2023-03-14T11:55:32;0.40;;;0.40;;
20344;SDS011;10330;48.816;9.278;2023-03-14T12:00:49;0.20;;;0.20;;
20344;SDS011;10330;48.816;9.278;2023-03-14T12:03:32;0.20;;;0.20;;
20344;SDS011;10330;48.816;9.278;2023-03-14T12:11:32;0.40;;;0.40;;
20344;SDS011;10330;48.816;9.278;2023-03-14T12:14:15;0.55;;;0.55;;
20344;SDS011;10330;48.816;9.278;2023-03-14T12:16:45;0.40;;;0.40;;
20344;SDS011;10330;48.816;9.278;2023-03-14T12:19:14;1.10;;;0.22;;
20344;SDS011;10330;48.816;9.278;2023-03-14T12:21:57;0.85;;;0.60;;
20344;SDS011;10330;48.816;9.278;2023-03-14T12:24:34;0.40;;;0.40;;
20344;SDS011;10330;48.816;9.278;2023-03-14T12:27:12;0.35;;;0.35;;
20344;SDS011;10330;48.816;9.278;2023-03-14T12:30:00;0.22;;;0.22;;
20344;SDS011;10330;48.816;9.278;2023-03-14T12:32:26;0.30;;;0.30;;
20344;SDS011;10330;48.816;9.278;2023-03-14T12:34:54;0.70;;;0.52;;
20344;SDS011;10330;48.816;9.278;2023-03-14T12:37:28;0.75;;;0.50;;
20344;SDS011;10330;48.816;9.278;2023-03-14T12:40:17;0.65;;;0.32;;
20344;SDS011;10330;48.816;9.278;2023-03-14T12:46:06;0.45;;;0.40;;
20344;SDS011;10330;48.816;9.278;2023-03-14T12:48:33;2.47;;;0.40;;
20344;SDS011;10330;48.816;9.278;2023-03-14T12:51:03;4.18;;;0.70;;
20344;SDS011;10330;48.816;9.278;2023-03-14T12:57:42;1.50;;;0.82;;
20344;SDS011;10330;48.816;9.278;2023-03-14T13:00:51;0.50;;;0.50;;
20344;SDS011;10330;48.816;9.278;2023-03-14T13:07:20;0.88;;;0.88;;
20344;SDS011;10330;48.816;9.278;2023-03-14T13:10:19;1.25;;;0.57;;
20344;SDS011;10330;48.816;9.278;2023-03-14T13:16:36;1.70;;;0.85;;
20344;SDS011;10330;48.816;9.278;2023-03-14T13:19:39;0.65;;;0.50;;
20344;SDS011;10330;48.816;9.278;2023-03-14T13:22:03;0.55;;;0.40;;
20344;SDS011;10330;48.816;9.278;2023-03-14T13:24:41;0.30;;;0.30;;
20344;SDS011;10330;48.816;9.278;2023-03-14T13:27:13;0.50;;;0.50;;
20344;SDS011;10330;48.816;9.278;2023-03-14T13:29:50;14.52;;;0.63;;
20344;SDS011;10330;48.816;9.278;2023-03-14T13:32:19;0.85;;;0.73;;
20344;SDS011;10330;48.816;9.278;2023-03-14T13:34:46;2.45;;;0.60;;
20344;SDS011;10330;48.816;9.278;2023-03-14T13:37:22;0.40;;;0.40;;
20344;SDS011;10330;48.816;9.278;2023-03-14T13:39:50;0.52;;;0.45;;
20344;SDS011;10330;48.816;9.278;2023-03-14T13:42:26;2.47;;;0.57;;
20344;SDS011;10330;48.816;9.278;2023-03-14T13:44:55;0.50;;;0.50;;
20344;SDS011;10330;48.816;9.278;2023-03-14T13:47:23;0.52;;;0.52;;
20344;SDS011;10330;48.816;9.278;2023-03-14T13:49:51;0.70;;;0.70;;
20344;SDS011;10330;48.816;9.278;2023-03-14T13:52:22;3.00;;;0.73;;
20344;SDS011;10330;48.816;9.278;2023-03-14T13:54:56;0.52;;;0.45;;
20344;SDS011;10330;48.816;9.278;2023-03-14T13:57:24;3.42;;;0.68;;
20344;SDS011;10330;48.816;9.278;2023-03-14T14:00:04;1.65;;;0.82;;
20344;SDS011;10330;48.816;9.278;2023-03-14T14:02:36;1.40;;;0.50;;
20344;SDS011;10330;48.816;9.278;2023-03-14T14:05:03;0.52;;;0.52;;
20344;SDS011;10330;48.816;9.278;2023-03-14T14:07:33;0.93;;;0.60;;
20344;SDS011;10330;48.816;9.278;2023-03-14T14:10:05;0.40;;;0.40;;
20344;SDS011;10330;48.816;9.278;2023-03-14T14:12:36;1.23;;;0.75;;
20344;SDS011;10330;48.816;9.278;2023-03-14T14:17:54;0.50;;;0.50;;
20344;SDS011;10330;48.816;9.278;2023-03-14T14:20:26;4.25;;;1.38;;
20344;SDS011;10330;48.816;9.278;2023-03-14T14:23:02;0.50;;;0.50;;
20344;SDS011;10330;48.816;9.278;2023-03-14T14:25:39;1.90;;;0.88;;
20344;SDS011;10330;48.816;9.278;2023-03-14T14:28:15;1.75;;;1.13;;
20344;SDS011;10330;48.816;9.278;2023-03-14T14:31:03;1.40;;;0.50;;
20344;SDS011;10330;48.816;9.278;2023-03-14T14:33:30;1.05;;;0.95;;
20344;SDS011;10330;48.816;9.278;2023-03-14T14:36:11;2.15;;;0.70;;
20344;SDS011;10330;48.816;9.278;2023-03-14T14:39:39;2.83;;;0.35;;
20344;SDS011;10330;48.816;9.278;2023-03-14T14:42:19;2.35;;;0.85;;
20344;SDS011;10330;48.816;9.278;2023-03-14T14:44:50;0.73;;;0.63;;
20344;SDS011;10330;48.816;9.278;2023-03-14T14:47:20;4.95;;;1.13;;
20344;SDS011;10330;48.816;9.278;2023-03-14T14:49:49;1.85;;;0.85;;
20344;SDS011;10330;48.816;9.278;2023-03-14T14:52:21;3.65;;;0.65;;
20344;SDS011;10330;48.816;9.278;2023-03-14T14:54:59;1.70;;;0.77;;
20344;SDS011;10330;48.816;9.278;2023-03-14T14:57:31;1.17;;;1.02;;
20344;SDS011;10330;48.816;9.278;2023-03-14T15:00:05;1.75;;;0.70;;
20344;SDS011;10330;48.816;9.278;2023-03-14T15:02:44;0.65;;;0.65;;
20344;SDS011;10330;48.816;9.278;2023-03-14T15:05:20;0.75;;;0.68;;
20344;SDS011;10330;48.816;9.278;2023-03-14T15:07:51;1.45;;;0.98;;
20344;SDS011;10330;48.816;9.278;2023-03-14T15:10:21;5.15;;;1.00;;
20344;SDS011;10330;48.816;9.278;2023-03-14T15:12:49;4.65;;;1.02;;
20344;SDS011;10330;48.816;9.278;2023-03-14T15:15:16;1.55;;;1.20;;
20344;SDS011;10330;48.816;9.278;2023-03-14T15:17:43;2.20;;;0.80;;
20344;SDS011;10330;48.816;9.278;2023-03-14T15:20:10;1.63;;;0.90;;
20344;SDS011;10330;48.816;9.278;2023-03-14T15:22:49;2.80;;;0.95;;
20344;SDS011;10330;48.816;9.278;2023-03-14T15:25:16;2.95;;;0.93;;
20344;SDS011;10330;48.816;9.278;2023-03-14T15:27:42;0.77;;;0.77;;
20344;SDS011;10330;48.816;9.278;2023-03-14T15:30:12;1.75;;;0.70;;
20344;SDS011;10330;48.816;9.278;2023-03-14T15:32:39;2.40;;;0.60;;
20344;SDS011;10330;48.816;9.278;2023-03-14T15:35:06;1.73;;;0.47;;
20344;SDS011;10330;48.816;9.278;2023-03-14T15:37:33;1.85;;;1.00;;
20344;SDS011;10330;48.816;9.278;2023-03-14T15:40:01;1.92;;;0.73;;
20344;SDS011;10330;48.816;9.278;2023-03-14T15:42:37;5.15;;;0.85;;
20344;SDS011;10330;48.816;9.278;2023-03-14T15:45:03;5.00;;;0.95;;
20344;SDS011;10330;48.816;9.278;2023-03-14T15:47:30;13.38;;;4.00;;
20344;SDS011;10330;48.816;9.278;2023-03-14T15:49:57;3.25;;;1.60;;
20344;SDS011;10330;48.816;9.278;2023-03-14T15:52:24;4.78;;;2.95;;
20344;SDS011;10330;48.816;9.278;2023-03-14T15:54:50;3.08;;;1.52;;
20344;SDS011;10330;48.816;9.278;2023-03-14T15:57:17;0.90;;;0.90;;
20344;SDS011;10330;48.816;9.278;2023-03-14T15:59:43;3.25;;;1.02;;
20344;SDS011;10330;48.816;9.278;2023-03-14T16:02:10;3.63;;;1.02;;
20344;SDS011;10330;48.816;9.278;2023-03-14T16:04:36;1.58;;;0.90;;
20344;SDS011;10330;48.816;9.278;2023-03-14T16:07:02;0.65;;;0.60;;
20344;SDS011;10330;48.816;9.278;2023-03-14T16:09:28;2.10;;;1.02;;
20344;SDS011;10330;48.816;9.278;2023-03-14T16:11:54;1.50;;;1.23;;
20344;SDS011;10330;48.816;9.278;2023-03-14T16:14:20;1.75;;;0.90;;
20344;SDS011;10330;48.816;9.278;2023-03-14T16:16:47;4.18;;;0.85;;
20344;SDS011;10330;48.816;9.278;2023-03-14T16:19:13;5.80;;;1.73;;
20344;SDS011;10330;48.816;9.278;2023-03-14T16:21:39;1.50;;;1.40;;
20344;SDS011;10330;48.816;9.278;2023-03-14T16:24:05;3.63;;;1.08;;
20344;SDS011;10330;48.816;9.278;2023-03-14T16:26:31;5.70;;;1.55;;
20344;SDS011;10330;48.816;9.278;2023-03-14T16:28:59;1.23;;;0.75;;
20344;SDS011;10330;48.816;9.278;2023-03-14T16:31:25;1.05;;;0.90;;
20344;SDS011;10330;48.816;9.278;2023-03-14T16:33:51;3.80;;;1.42;;
20344;SDS011;10330;48.816;9.278;2023-03-14T16:36:18;1.90;;;1.77;;
20344;SDS011;10330;48.816;9.278;2023-03-14T16:38:44;2.15;;;1.25;;
20344;SDS011;10330;48.816;9.278;2023-03-14T16:41:15;9.32;;;1.35;;
20344;SDS011;10330;48.816;9.278;2023-03-14T16:43:43;7.38;;;1.00;;
20344;SDS011;10330;48.816;9.278;2023-03-14T16:46:14;3.03;;;1.60;;
20344;SDS011;10330;48.816;9.278;2023-03-14T16:48:46;3.63;;;1.75;;
20344;SDS011;10330;48.816;9.278;2023-03-14T16:53:55;1.48;;;1.13;;
20344;SDS011;10330;48.816;9.278;2023-03-14T16:56:22;3.42;;;1.17;;
20344;SDS011;10330;48.816;9.278;2023-03-14T16:58:48;2.00;;;1.45;;
20344;SDS011;10330;48.816;9.278;2023-03-14T17:01:18;11.80;;;1.15;;
20344;SDS011;10330;48.816;9.278;2023-03-14T17:03:46;2.10;;;0.82;;
20344;SDS011;10330;48.816;9.278;2023-03-14T17:06:15;3.75;;;1.70;;
20344;SDS011;10330;48.816;9.278;2023-03-14T17:08:42;2.67;;;1.55;;
20344;SDS011;10330;48.816;9.278;2023-03-14T17:11:12;1.42;;;1.10;;
20344;SDS011;10330;48.816;9.278;2023-03-14T17:13:38;2.78;;;0.85;;
20344;SDS011;10330;48.816;9.278;2023-03-14T17:16:05;1.30;;;0.98;;
20344;SDS011;10330;48.816;9.278;2023-03-14T17:18:31;2.30;;;0.57;;
20344;SDS011;10330;48.816;9.278;2023-03-14T17:20:58;1.90;;;0.63;;
20344;SDS011;10330;48.816;9.278;2023-03-14T17:23:25;5.68;;;1.23;;
20344;SDS011;10330;48.816;9.278;2023-03-14T17:25:53;2.90;;;0.77;;
20344;SDS011;10330;48.816;9.278;2023-03-14T17:28:26;2.58;;;1.50;;
20344;SDS011;10330;48.816;9.278;2023-03-14T17:33:37;4.00;;;1.15;;
20344;SDS011;10330;48.816;9.278;2023-03-14T17:36:03;1.23;;;1.05;;
20344;SDS011;10330;48.816;9.278;2023-03-14T17:38:31;2.38;;;1.17;;
20344;SDS011;10330;48.816;9.278;2023-03-14T17:40:59;5.82;;;1.40;;
20344;SDS011;10330;48.816;9.278;2023-03-14T17:43:25;7.72;;;1.83;;
20344;SDS011;10330;48.816;9.278;2023-03-14T17:45:56;2.72;;;1.30;;
20344;SDS011;10330;48.816;9.278;2023-03-14T17:48:39;1.55;;;0.77;;
20344;SDS011;10330;48.816;9.278;2023-03-14T17:51:06;6.93;;;1.20;;
20344;SDS011;10330;48.816;9.278;2023-03-14T17:53:33;3.83;;;1.48;;
20344;SDS011;10330;48.816;9.278;2023-03-14T17:56:04;5.10;;;1.90;;
20344;SDS011;10330;48.816;9.278;2023-03-14T17:58:36;2.88;;;1.30;;
20344;SDS011;10330;48.816;9.278;2023-03-14T18:01:14;2.85;;;1.20;;
20344;SDS011;10330;48.816;9.278;2023-03-14T18:03:46;6.10;;;1.10;;
20344;SDS011;10330;48.816;9.278;2023-03-14T18:06:14;1.45;;;1.25;;
20344;SDS011;10330;48.816;9.278;2023-03-14T18:08:41;4.78;;;1.35;;
20344;SDS011;10330;48.816;9.278;2023-03-14T18:11:09;1.88;;;1.10;;
20344;SDS011;10330;48.816;9.278;2023-03-14T18:13:39;0.85;;;0.80;;
20344;SDS011;10330;48.816;9.278;2023-03-14T18:16:06;6.13;;;1.05;;
20344;SDS011;10330;48.816;9.278;2023-03-14T18:18:33;2.55;;;0.77;;
20344;SDS011;10330;48.816;9.278;2023-03-14T18:21:00;0.95;;;0.82;;
20344;SDS011;10330;48.816;9.278;2023-03-14T18:23:26;1.30;;;0.82;;
20344;SDS011;10330;48.816;9.278;2023-03-14T18:25:52;4.90;;;2.60;;
20344;SDS011;10330;48.816;9.278;2023-03-14T18:28:19;2.53;;;1.58;;
20344;SDS011;10330;48.816;9.278;2023-03-14T18:30:46;1.02;;;1.02;;
20344;SDS011;10330;48.816;9.278;2023-03-14T18:33:20;1.45;;;1.35;;
20344;SDS011;10330;48.816;9.278;2023-03-14T18:35:47;2.10;;;1.13;;
20344;SDS011;10330;48.816;9.278;2023-03-14T18:38:16;5.35;;;1.67;;
20344;SDS011;10330;48.816;9.278;2023-03-14T18:40:43;0.90;;;0.90;;
20344;SDS011;10330;48.816;9.278;2023-03-14T18:43:10;4.07;;;1.30;;
20344;SDS011;10330;48.816;9.278;2023-03-14T18:45:36;4.38;;;1.48;;
20344;SDS011;10330;48.816;9.278;2023-03-14T18:48:03;3.58;;;2.80;;
20344;SDS011;10330;48.816;9.278;2023-03-14T18:50:29;2.70;;;2.15;;
20344;SDS011;10330;48.816;9.278;2023-03-14T18:52:56;3.35;;;2.72;;
20344;SDS011;10330;48.816;9.278;2023-03-14T18:55:22;2.55;;;2.30;;
20344;SDS011;10330;48.816;9.278;2023-03-14T18:57:48;3.38;;;2.95;;
20344;SDS011;10330;48.816;9.278;2023-03-14T19:00:15;2.53;;;1.63;;
20344;SDS011;10330;48.816;9.278;2023-03-14T19:02:41;2.88;;;2.65;;
20344;SDS011;10330;48.816;9.278;2023-03-14T19:05:07;4.35;;;2.40;;
20344;SDS011;10330;48.816;9.278;2023-03-14T19:07:34;4.53;;;3.15;;
20344;SDS011;10330;48.816;9.278;2023-03-14T19:10:00;3.45;;;2.08;;
20344;SDS011;10330;48.816;9.278;2023-03-14T19:12:27;3.53;;;3.22;;
20344;SDS011;10330;48.816;9.278;2023-03-14T19:14:53;1.58;;;1.00;;
20344;SDS011;10330;48.816;9.278;2023-03-14T19:17:22;4.95;;;1.58;;
20344;SDS011;10330;48.816;9.278;2023-03-14T19:19:49;1.00;;;1.00;;
20344;SDS011;10330;48.816;9.278;2023-03-14T19:22:17;3.20;;;1.30;;
20344;SDS011;10330;48.816;9.278;2023-03-14T19:24:46;2.40;;;2.13;;
20344;SDS011;10330;48.816;9.278;2023-03-14T19:27:12;20.42;;;6.70;;
20344;SDS011;10330;48.816;9.278;2023-03-14T19:29:39;8.93;;;3.88;;
20344;SDS011;10330;48.816;9.278;2023-03-14T19:32:09;48.22;;;13.32;;
20344;SDS011;10330;48.816;9.278;2023-03-14T19:34:39;81.50;;;26.40;;
20344;SDS011;10330;48.816;9.278;2023-03-14T19:37:08;39.15;;;11.48;;
20344;SDS011;10330;48.816;9.278;2023-03-14T19:39:35;14.77;;;4.60;;
20344;SDS011;10330;48.816;9.278;2023-03-14T19:42:02;31.65;;;12.02;;